Time;durP1;ratioP1;P1;durP2;ratioP2;P2;SDS_P1;SDS_P2;PMS_P1;PMS_P2;Temp;Humidity;BMP_temperature;BMP_pressure;BME280_temperature;BME280_humidity;BME280_pressure;Samples;Min_cycle;Max_cycle;Signal;HPM_P1;HPM_P2
2021/03/21 00:00:46;;;;;;;2.80;2.40;;;;;;;;;;5010348;28;20413;-68
2021/03/21 00:03:12;;;;;;;3.67;2.88;;;;;;;;;;5010441;28;20475;-68
2021/03/21 00:05:39;;;;;;;4.63;2.55;;;;;;;;;;5009787;28;20385;-68
2021/03/21 00:08:22;;;;;;;4.25;2.60;;;;;;;;;;5010626;28;20455;-69
2021/03/21 00:10:53;;;;;;;3.92;2.50;;;;;;;;;;5009730;28;20523;-69
2021/03/21 00:13:22;;;;;;;3.55;2.55;;;;;;;;;;5010386;28;20439;-68
2021/03/21 00:15:49;;;;;;;2.35;2.08;;;;;;;;;;5009498;28;20443;-68
2021/03/21 00:18:16;;;;;;;2.38;2.03;;;;;;;;;;5010364;28;20460;-67
2021/03/21 00:20:43;;;;;;;3.40;2.25;;;;;;;;;;5009605;28;20373;-67
2021/03/21 00:23:09;;;;;;;3.90;3.00;;;;;;;;;;5010347;28;20369;-68
2021/03/21 00:25:36;;;;;;;3.10;2.60;;;;;;;;;;5009580;28;20381;-68
2021/03/21 00:28:03;;;;;;;4.80;2.47;;;;;;;;;;5010116;28;20825;-67
2021/03/21 00:30:35;;;;;;;2.40;2.20;;;;;;;;;;5009934;28;20500;-70
2021/03/21 00:33:01;;;;;;;2.40;2.20;;;;;;;;;;5010383;28;20472;-69
2021/03/21 00:35:27;;;;;;;3.55;2.40;;;;;;;;;;5010228;28;20365;-69
2021/03/21 00:38:02;;;;;;;2.80;2.50;;;;;;;;;;5009790;28;20388;-69
2021/03/21 00:40:29;;;;;;;2.20;2.03;;;;;;;;;;5010163;28;20387;-72
2021/03/21 00:42:55;;;;;;;3.17;2.20;;;;;;;;;;5009537;28;20401;-68
2021/03/21 00:45:22;;;;;;;3.88;2.20;;;;;;;;;;5008877;28;20387;-68
2021/03/21 00:47:48;;;;;;;2.30;2.00;;;;;;;;;;5009566;28;20595;-69
2021/03/21 00:50:16;;;;;;;2.20;2.00;;;;;;;;;;5010071;28;20425;-69
2021/03/21 00:52:42;;;;;;;2.45;2.00;;;;;;;;;;5009211;28;20420;-68
2021/03/21 00:55:10;;;;;;;2.03;1.65;;;;;;;;;;5010148;28;20376;-68
2021/03/21 00:57:36;;;;;;;2.35;2.10;;;;;;;;;;5009071;28;20393;-68
2021/03/21 01:00:05;;;;;;;2.20;1.90;;;;;;;;;;5009853;28;20792;-69
2021/03/21 01:02:31;;;;;;;3.00;1.90;;;;;;;;;;5009626;28;20387;-72
2021/03/21 01:04:57;;;;;;;2.58;1.85;;;;;;;;;;5009783;28;20409;-68
2021/03/21 01:07:22;;;;;;;2.22;2.03;;;;;;;;;;5009649;28;20389;-68
2021/03/21 01:09:49;;;;;;;2.63;1.88;;;;;;;;;;5009261;28;20420;-68
2021/03/21 01:12:15;;;;;;;2.42;2.03;;;;;;;;;;5009772;28;20373;-67
2021/03/21 01:14:41;;;;;;;2.50;1.60;;;;;;;;;;5008954;28;20713;-68
2021/03/21 01:17:07;;;;;;;2.60;2.00;;;;;;;;;;5009673;28;20683;-68
2021/03/21 01:19:33;;;;;;;2.67;1.80;;;;;;;;;;5009399;28;20419;-71
2021/03/21 01:21:59;;;;;;;2.80;2.10;;;;;;;;;;5009366;28;20431;-68
2021/03/21 01:24:25;;;;;;;2.13;1.93;;;;;;;;;;5011646;28;20381;-68
2021/03/21 01:26:52;;;;;;;2.90;2.28;;;;;;;;;;5012636;28;20421;-69
2021/03/21 01:29:18;;;;;;;2.60;2.40;;;;;;;;;;5013306;28;20405;-68
2021/03/21 01:31:45;;;;;;;2.57;2.37;;;;;;;;;;5012428;28;20381;-69
2021/03/21 01:34:12;;;;;;;2.28;2.08;;;;;;;;;;5013247;28;20786;-68
2021/03/21 01:36:39;;;;;;;2.75;2.10;;;;;;;;;;5012173;28;20463;-69
2021/03/21 01:39:07;;;;;;;4.65;2.30;;;;;;;;;;5012755;28;20436;-69
2021/03/21 01:41:34;;;;;;;2.72;2.10;;;;;;;;;;5027456;28;20875;-72
2021/03/21 01:44:01;;;;;;;2.10;1.90;;;;;;;;;;5032499;28;20387;-69
2021/03/21 01:46:36;;;;;;;2.38;2.17;;;;;;;;;;5033175;28;20379;-69
2021/03/21 01:49:14;;;;;;;2.40;2.00;;;;;;;;;;5031014;28;20460;-69
2021/03/21 01:51:41;;;;;;;1.77;1.67;;;;;;;;;;5031992;28;20383;-69
2021/03/21 01:54:09;;;;;;;2.80;2.10;;;;;;;;;;5032812;28;20376;-69
2021/03/21 01:56:35;;;;;;;2.20;1.90;;;;;;;;;;5032092;28;20386;-72
2021/03/21 01:59:09;;;;;;;2.97;1.95;;;;;;;;;;5032347;28;20375;-69
2021/03/21 02:01:36;;;;;;;2.60;2.03;;;;;;;;;;5031969;28;20383;-72
2021/03/21 02:04:02;;;;;;;3.00;1.90;;;;;;;;;;5032462;28;20379;-69
2021/03/21 02:06:37;;;;;;;3.35;2.28;;;;;;;;;;5031088;28;20438;-69
2021/03/21 02:09:27;;;;;;;2.55;2.25;;;;;;;;;;5032490;28;20409;-69
2021/03/21 02:11:53;;;;;;;4.72;2.17;;;;;;;;;;5031669;28;20385;-69
2021/03/21 02:14:32;;;;;;;3.75;2.15;;;;;;;;;;5032414;28;20376;-69
2021/03/21 02:17:21;;;;;;;2.95;2.25;;;;;;;;;;5031256;28;20376;-69
2021/03/21 02:20:09;;;;;;;2.63;2.20;;;;;;;;;;5028259;28;20414;-69
2021/03/21 02:22:45;;;;;;;3.00;2.22;;;;;;;;;;5030753;28;20391;-72
2021/03/21 02:25:39;;;;;;;5.07;2.58;;;;;;;;;;5032335;28;20410;-69
2021/03/21 02:28:11;;;;;;;3.35;2.03;;;;;;;;;;5032014;28;20504;-69
2021/03/21 02:30:40;;;;;;;2.10;1.77;;;;;;;;;;5031543;28;20388;-72
2021/03/21 02:33:18;;;;;;;3.40;2.05;;;;;;;;;;5014171;28;20392;-69
2021/03/21 02:35:44;;;;;;;3.97;2.30;;;;;;;;;;5010534;28;20757;-69
2021/03/21 02:38:19;;;;;;;3.78;2.25;;;;;;;;;;5011204;28;20409;-69
2021/03/21 02:40:54;;;;;;;2.53;1.90;;;;;;;;;;5003338;28;20868;-69
2021/03/21 02:43:23;;;;;;;2.80;2.53;;;;;;;;;;5011877;28;20374;-69
2021/03/21 02:45:51;;;;;;;2.85;2.30;;;;;;;;;;5011263;28;20377;-69
2021/03/21 02:48:21;;;;;;;3.10;1.95;;;;;;;;;;5011894;28;20424;-68
2021/03/21 02:50:53;;;;;;;2.33;2.13;;;;;;;;;;5011085;28;20432;-70
2021/03/21 02:53:22;;;;;;;4.15;2.13;;;;;;;;;;5011627;28;20959;-69
2021/03/21 02:55:49;;;;;;;3.00;2.05;;;;;;;;;;5011133;28;20420;-69
2021/03/21 02:58:21;;;;;;;2.33;1.92;;;;;;;;;;5011656;28;20388;-69
2021/03/21 03:00:51;;;;;;;2.63;2.30;;;;;;;;;;5011060;28;20378;-68
2021/03/21 03:03:19;;;;;;;2.50;2.30;;;;;;;;;;5011701;28;20459;-68
2021/03/21 03:05:48;;;;;;;3.20;2.50;;;;;;;;;;5025851;28;20960;-68
2021/03/21 03:08:28;;;;;;;2.60;2.40;;;;;;;;;;5011644;28;20391;-69
2021/03/21 03:11:00;;;;;;;3.10;1.92;;;;;;;;;;5010322;28;20392;-69
2021/03/21 03:13:33;;;;;;;3.47;2.70;;;;;;;;;;5011420;28;20393;-69
2021/03/21 03:16:01;;;;;;;2.45;1.90;;;;;;;;;;5010452;28;20869;-69
2021/03/21 03:18:36;;;;;;;2.88;1.83;;;;;;;;;;5011331;28;20765;-68
2021/03/21 03:21:05;;;;;;;2.20;2.00;;;;;;;;;;5010546;28;20385;-69
2021/03/21 03:23:43;;;;;;;2.97;2.08;;;;;;;;;;5011409;28;20791;-69
2021/03/21 03:26:18;;;;;;;2.45;1.83;;;;;;;;;;5011083;28;20439;-68
2021/03/21 03:28:53;;;;;;;1.90;1.65;;;;;;;;;;5009644;28;20804;-69
2021/03/21 03:31:19;;;;;;;3.17;1.75;;;;;;;;;;5002807;28;20761;-68
2021/03/21 03:33:45;;;;;;;2.03;1.60;;;;;;;;;;5010107;28;20385;-69
2021/03/21 03:36:14;;;;;;;2.70;1.60;;;;;;;;;;5011017;28;20381;-68
2021/03/21 03:38:41;;;;;;;2.30;1.60;;;;;;;;;;5011328;28;20396;-72
2021/03/21 03:41:17;;;;;;;3.50;1.80;;;;;;;;;;5010983;28;20409;-68
2021/03/21 03:43:49;;;;;;;1.80;1.70;;;;;;;;;;5010162;28;20381;-72
2021/03/21 03:46:20;;;;;;;2.10;1.70;;;;;;;;;;5010709;28;20465;-69
2021/03/21 03:48:46;;;;;;;1.70;1.60;;;;;;;;;;5010013;28;20515;-69
2021/03/21 03:51:15;;;;;;;1.60;1.50;;;;;;;;;;5011006;28;20389;-69
2021/03/21 03:53:47;;;;;;;2.40;1.70;;;;;;;;;;5010242;28;20468;-72
2021/03/21 03:56:15;;;;;;;2.10;1.77;;;;;;;;;;5009602;28;20397;-68
2021/03/21 03:58:44;;;;;;;2.75;1.90;;;;;;;;;;5010439;28;20380;-71
2021/03/21 04:01:10;;;;;;;3.70;1.75;;;;;;;;;;5010520;28;20415;-68
2021/03/21 04:03:43;;;;;;;2.13;1.50;;;;;;;;;;5010691;28;20421;-68
2021/03/21 04:06:13;;;;;;;1.70;1.60;;;;;;;;;;5010869;28;20369;-69
2021/03/21 04:09:00;;;;;;;1.60;1.40;;;;;;;;;;5010583;28;20419;-68
2021/03/21 04:11:26;;;;;;;2.08;1.88;;;;;;;;;;5010545;28;20389;-68
2021/03/21 04:13:57;;;;;;;3.75;2.03;;;;;;;;;;5010090;28;20385;-69
2021/03/21 04:16:43;;;;;;;1.70;1.60;;;;;;;;;;5010862;28;20440;-68
2021/03/21 04:19:13;;;;;;;2.20;1.23;;;;;;;;;;5009994;28;20471;-69
2021/03/21 04:21:46;;;;;;;1.90;1.50;;;;;;;;;;5010563;28;20421;-69
2021/03/21 04:24:22;;;;;;;2.40;1.67;;;;;;;;;;5010502;28;20484;-68
2021/03/21 04:27:05;;;;;;;2.38;1.70;;;;;;;;;;5009611;28;20710;-69
2021/03/21 04:29:50;;;;;;;2.70;1.75;;;;;;;;;;5010029;28;20956;-69
2021/03/21 04:32:19;;;;;;;4.15;1.70;;;;;;;;;;5010405;28;20415;-69
2021/03/21 04:34:47;;;;;;;2.05;1.83;;;;;;;;;;5009873;28;20468;-72
2021/03/21 04:37:13;;;;;;;3.63;2.10;;;;;;;;;;5010079;28;20392;-68
2021/03/21 04:39:40;;;;;;;2.30;1.70;;;;;;;;;;5010114;28;20389;-68
2021/03/21 04:42:22;;;;;;;2.53;1.95;;;;;;;;;;5009510;28;20444;-69
2021/03/21 04:44:57;;;;;;;2.38;1.85;;;;;;;;;;5009329;28;20380;-69
2021/03/21 04:47:28;;;;;;;4.18;1.90;;;;;;;;;;5010318;28;20376;-68
2021/03/21 04:49:55;;;;;;;4.40;2.10;;;;;;;;;;5009223;28;20450;-69
2021/03/21 04:52:34;;;;;;;2.72;2.42;;;;;;;;;;5010399;28;20479;-68
2021/03/21 04:55:02;;;;;;;2.50;2.20;;;;;;;;;;5008428;28;20450;-69
2021/03/21 04:57:40;;;;;;;2.20;2.00;;;;;;;;;;4999447;28;20391;-69
2021/03/21 05:00:13;;;;;;;2.20;2.00;;;;;;;;;;5006834;28;20380;-68
2021/03/21 05:02:43;;;;;;;3.30;2.40;;;;;;;;;;4995173;28;20806;-69
2021/03/21 05:05:14;;;;;;;2.90;2.00;;;;;;;;;;5003693;28;20371;-70
2021/03/21 05:07:49;;;;;;;3.13;2.58;;;;;;;;;;5005992;28;20497;-69
2021/03/21 05:10:15;;;;;;;2.50;2.30;;;;;;;;;;5000337;28;20512;-70
2021/03/21 05:12:44;;;;;;;3.33;2.30;;;;;;;;;;5005377;28;20385;-72
2021/03/21 05:15:12;;;;;;;4.13;2.00;;;;;;;;;;5002571;28;20392;-70
2021/03/21 05:17:38;;;;;;;3.72;2.53;;;;;;;;;;5003431;28;20464;-71
2021/03/21 05:20:26;;;;;;;2.63;2.05;;;;;;;;;;5002068;28;20393;-71
2021/03/21 05:23:01;;;;;;;2.60;2.33;;;;;;;;;;5001318;28;20414;-71
2021/03/21 05:25:31;;;;;;;5.03;2.60;;;;;;;;;;5003516;28;20591;-68
2021/03/21 05:28:10;;;;;;;3.27;2.10;;;;;;;;;;5001910;28;20381;-68
2021/03/21 05:30:37;;;;;;;2.03;1.90;;;;;;;;;;5003853;28;20940;-68
2021/03/21 05:33:04;;;;;;;2.57;2.10;;;;;;;;;;5002886;28;20376;-69
2021/03/21 05:35:32;;;;;;;3.10;2.28;;;;;;;;;;5002403;28;20439;-68
2021/03/21 05:37:58;;;;;;;2.83;2.35;;;;;;;;;;5002378;28;20513;-71
2021/03/21 05:40:37;;;;;;;3.80;2.20;;;;;;;;;;5002563;28;20414;-70
2021/03/21 05:43:12;;;;;;;2.40;2.03;;;;;;;;;;5002680;28;20435;-68
2021/03/21 05:45:50;;;;;;;3.17;2.13;;;;;;;;;;5001600;28;20780;-71
2021/03/21 05:48:34;;;;;;;2.65;2.10;;;;;;;;;;5000638;28;20442;-71
2021/03/21 05:51:09;;;;;;;2.30;1.73;;;;;;;;;;5003437;28;20395;-68
2021/03/21 05:53:35;;;;;;;2.03;1.83;;;;;;;;;;5002675;28;20426;-69
2021/03/21 05:56:12;;;;;;;2.20;1.90;;;;;;;;;;5001550;28;20389;-68
2021/03/21 05:58:39;;;;;;;3.60;2.17;;;;;;;;;;5000523;28;20388;-69
2021/03/21 06:01:32;;;;;;;2.90;1.77;;;;;;;;;;5006693;28;20415;-70
2021/03/21 06:04:10;;;;;;;2.20;1.70;;;;;;;;;;5002164;28;20377;-70
2021/03/21 06:06:54;;;;;;;4.32;2.28;;;;;;;;;;5003916;28;20439;-70
2021/03/21 06:09:28;;;;;;;3.00;1.70;;;;;;;;;;5001325;28;20444;-73
2021/03/21 06:12:26;;;;;;;1.80;1.55;;;;;;;;;;5001134;28;20389;-69
2021/03/21 06:15:00;;;;;;;3.00;1.50;;;;;;;;;;4999071;28;20397;-69
2021/03/21 06:17:45;;;;;;;2.57;2.00;;;;;;;;;;5000624;28;21012;-70
2021/03/21 06:20:13;;;;;;;2.15;1.67;;;;;;;;;;5001120;28;20411;-70
2021/03/21 06:22:58;;;;;;;2.83;1.98;;;;;;;;;;5003970;28;20389;-69
2021/03/21 06:25:33;;;;;;;2.35;1.90;;;;;;;;;;5003258;28;20383;-69
2021/03/21 06:27:59;;;;;;;2.35;2.08;;;;;;;;;;5001410;28;20384;-69
2021/03/21 06:30:44;;;;;;;2.13;1.70;;;;;;;;;;5000883;28;20432;-72
2021/03/21 06:33:25;;;;;;;3.25;2.03;;;;;;;;;;5002922;28;20393;-71
2021/03/21 06:36:12;;;;;;;2.87;1.87;;;;;;;;;;5002882;28;20451;-72
2021/03/21 06:38:38;;;;;;;2.15;1.95;;;;;;;;;;5001548;28;20384;-68
2021/03/21 06:41:10;;;;;;;2.58;2.00;;;;;;;;;;5005457;28;20432;-68
2021/03/21 06:43:36;;;;;;;1.92;1.73;;;;;;;;;;5002285;28;20400;-69
2021/03/21 06:46:04;;;;;;;2.55;2.05;;;;;;;;;;5001508;28;20388;-71
2021/03/21 06:48:33;;;;;;;2.00;1.80;;;;;;;;;;5000115;28;20409;-68
2021/03/21 06:51:20;;;;;;;3.33;1.92;;;;;;;;;;5014109;28;21548;-71
2021/03/21 06:54:07;;;;;;;2.13;1.90;;;;;;;;;;4999220;28;20711;-71
2021/03/21 06:56:32;;;;;;;2.88;2.50;;;;;;;;;;4980077;28;20416;-69
2021/03/21 06:59:39;;;;;;;4.15;2.70;;;;;;;;;;4999600;28;20428;-70
2021/03/21 07:02:17;;;;;;;2.88;2.10;;;;;;;;;;4940963;29;20394;-71
2021/03/21 07:05:02;;;;;;;3.80;2.10;;;;;;;;;;4941201;28;21282;-69
2021/03/21 07:07:37;;;;;;;3.20;2.10;;;;;;;;;;4981330;28;20439;-68
2021/03/21 07:10:41;;;;;;;1.63;1.52;;;;;;;;;;4998501;28;20420;-69
2021/03/21 07:13:15;;;;;;;3.28;1.52;;;;;;;;;;4977155;28;20594;-68
2021/03/21 07:16:00;;;;;;;3.88;2.60;;;;;;;;;;4988309;28;20389;-70
2021/03/21 07:18:43;;;;;;;2.53;2.10;;;;;;;;;;4995202;28;21590;-71
2021/03/21 07:21:29;;;;;;;3.08;2.30;;;;;;;;;;5000306;28;20896;-69
2021/03/21 07:24:10;;;;;;;2.50;2.30;;;;;;;;;;5002413;28;20744;-72
2021/03/21 07:26:55;;;;;;;3.70;2.30;;;;;;;;;;5001908;28;20415;-70
2021/03/21 07:29:31;;;;;;;3.63;2.30;;;;;;;;;;4997712;28;20423;-69
2021/03/21 07:31:57;;;;;;;3.05;2.30;;;;;;;;;;4998995;28;21579;-72
2021/03/21 07:34:41;;;;;;;2.40;2.20;;;;;;;;;;5001421;28;20393;-70
2021/03/21 07:37:19;;;;;;;4.30;2.37;;;;;;;;;;5001280;28;20385;-69
2021/03/21 07:39:55;;;;;;;2.50;1.80;;;;;;;;;;5000437;28;20453;-69
2021/03/21 07:42:29;;;;;;;2.55;2.03;;;;;;;;;;4999472;28;20577;-69
2021/03/21 07:44:55;;;;;;;2.92;2.10;;;;;;;;;;5000870;28;20491;-72
2021/03/21 07:47:31;;;;;;;2.33;2.10;;;;;;;;;;5001516;28;20381;-70
2021/03/21 07:50:03;;;;;;;2.40;2.00;;;;;;;;;;4999938;28;20405;-71
2021/03/21 07:52:45;;;;;;;2.10;1.90;;;;;;;;;;5000340;28;20388;-72
2021/03/21 07:55:14;;;;;;;2.33;1.90;;;;;;;;;;5000160;28;20385;-70
2021/03/21 07:58:03;;;;;;;2.30;1.90;;;;;;;;;;5001911;28;20837;-70
2021/03/21 08:00:29;;;;;;;3.03;2.20;;;;;;;;;;4992143;28;20408;-71
2021/03/21 08:03:14;;;;;;;2.60;1.80;;;;;;;;;;4999589;28;20385;-71
2021/03/21 08:05:41;;;;;;;2.80;2.20;;;;;;;;;;4999685;28;20543;-72
2021/03/21 08:08:12;;;;;;;2.97;2.05;;;;;;;;;;5000928;28;20401;-71
2021/03/21 08:10:39;;;;;;;2.40;1.70;;;;;;;;;;5002065;28;20397;-69
2021/03/21 08:13:08;;;;;;;3.33;1.85;;;;;;;;;;4998920;28;20923;-69
2021/03/21 08:15:37;;;;;;;2.50;1.70;;;;;;;;;;5001666;28;20468;-70
2021/03/21 08:18:23;;;;;;;1.60;1.50;;;;;;;;;;5001284;28;20412;-69
2021/03/21 08:20:51;;;;;;;3.22;1.60;;;;;;;;;;5001627;28;21050;-69
2021/03/21 08:23:29;;;;;;;1.88;1.73;;;;;;;;;;4998867;28;21071;-69
2021/03/21 08:25:58;;;;;;;2.78;1.77;;;;;;;;;;4999458;28;21122;-70
2021/03/21 08:28:35;;;;;;;2.17;1.75;;;;;;;;;;5005077;28;20901;-70
2021/03/21 08:31:01;;;;;;;2.00;1.85;;;;;;;;;;5001323;28;20381;-72
2021/03/21 08:33:27;;;;;;;2.25;1.73;;;;;;;;;;5010371;28;20372;-71
2021/03/21 08:36:07;;;;;;;2.53;2.10;;;;;;;;;;5013226;28;20377;-70
2021/03/21 08:38:34;;;;;;;2.40;1.90;;;;;;;;;;5013651;28;20396;-69
2021/03/21 08:41:02;;;;;;;2.78;2.00;;;;;;;;;;5012888;28;20874;-70
2021/03/21 08:43:34;;;;;;;1.98;1.63;;;;;;;;;;5013387;28;20407;-71
2021/03/21 08:46:03;;;;;;;2.83;1.67;;;;;;;;;;5013573;28;20853;-72
2021/03/21 08:48:34;;;;;;;2.42;2.22;;;;;;;;;;5013481;28;20896;-69
2021/03/21 08:51:20;;;;;;;3.50;2.07;;;;;;;;;;5028144;28;20404;-72
2021/03/21 08:53:55;;;;;;;2.53;1.70;;;;;;;;;;5013460;28;20725;-69
2021/03/21 08:56:24;;;;;;;1.60;1.50;;;;;;;;;;5012158;28;20404;-69
2021/03/21 08:59:09;;;;;;;2.45;2.17;;;;;;;;;;5002049;28;20472;-69
2021/03/21 09:01:36;;;;;;;3.40;2.40;;;;;;;;;;5011150;28;20406;-70
2021/03/21 09:04:11;;;;;;;2.15;1.80;;;;;;;;;;4993820;28;20406;-72
2021/03/21 09:06:41;;;;;;;1.90;1.60;;;;;;;;;;4994431;28;20405;-69
2021/03/21 09:09:27;;;;;;;2.60;2.00;;;;;;;;;;5008542;28;20971;-70
2021/03/21 09:11:55;;;;;;;1.85;1.50;;;;;;;;;;5013883;28;20426;-68
2021/03/21 09:14:27;;;;;;;3.10;1.70;;;;;;;;;;5013214;28;20369;-70
2021/03/21 09:16:54;;;;;;;2.47;1.90;;;;;;;;;;5029131;28;20530;-69
2021/03/21 09:19:23;;;;;;;1.95;1.60;;;;;;;;;;5011717;28;21074;-71
2021/03/21 09:21:49;;;;;;;3.13;1.63;;;;;;;;;;5013672;28;20373;-69
2021/03/21 09:24:22;;;;;;;2.30;1.90;;;;;;;;;;5012831;28;20831;-69
2021/03/21 09:26:48;;;;;;;1.98;1.77;;;;;;;;;;5013833;28;20380;-69
2021/03/21 09:29:23;;;;;;;1.60;1.50;;;;;;;;;;5012182;28;20415;-69
2021/03/21 09:31:49;;;;;;;2.20;1.70;;;;;;;;;;5006330;28;20387;-70
2021/03/21 09:34:18;;;;;;;2.80;1.85;;;;;;;;;;4992498;28;20469;-70
2021/03/21 09:36:50;;;;;;;2.03;1.40;;;;;;;;;;4993390;28;20478;-69
2021/03/21 09:39:19;;;;;;;1.92;1.73;;;;;;;;;;4993096;28;20901;-69
2021/03/21 09:41:48;;;;;;;1.80;1.55;;;;;;;;;;5008634;28;20731;-69
2021/03/21 09:44:20;;;;;;;2.70;1.60;;;;;;;;;;4992999;28;20714;-69
2021/03/21 09:46:57;;;;;;;1.60;1.50;;;;;;;;;;4993424;28;20428;-70
2021/03/21 09:49:32;;;;;;;2.40;1.50;;;;;;;;;;4992362;28;20429;-69
2021/03/21 09:52:12;;;;;;;2.20;1.50;;;;;;;;;;4992990;28;20425;-69
2021/03/21 09:54:41;;;;;;;2.03;1.60;;;;;;;;;;4993638;28;20933;-72
2021/03/21 09:57:16;;;;;;;2.20;1.80;;;;;;;;;;5031919;28;20867;-69
2021/03/21 09:59:57;;;;;;;2.50;1.70;;;;;;;;;;5032508;28;20383;-70
2021/03/21 10:02:33;;;;;;;2.40;2.00;;;;;;;;;;5031929;28;20387;-68
2021/03/21 10:05:01;;;;;;;2.15;1.63;;;;;;;;;;5032649;28;20403;-69
2021/03/21 10:07:37;;;;;;;1.75;1.65;;;;;;;;;;5031287;28;20395;-69
2021/03/21 10:10:07;;;;;;;2.97;1.67;;;;;;;;;;5032761;28;20420;-72
2021/03/21 10:12:38;;;;;;;1.98;1.70;;;;;;;;;;5031709;28;20532;-69
2021/03/21 10:15:06;;;;;;;2.30;1.60;;;;;;;;;;5032533;28;20376;-72
2021/03/21 10:17:35;;;;;;;1.83;1.40;;;;;;;;;;5032860;28;20767;-70
2021/03/21 10:20:01;;;;;;;1.55;1.40;;;;;;;;;;5032787;28;20405;-70
2021/03/21 10:22:27;;;;;;;2.60;1.80;;;;;;;;;;5031965;28;20379;-70
2021/03/21 10:24:58;;;;;;;2.20;1.50;;;;;;;;;;5032785;28;20429;-69
2021/03/21 10:27:30;;;;;;;1.50;1.30;;;;;;;;;;5031832;28;20437;-70
2021/03/21 10:30:08;;;;;;;2.45;1.70;;;;;;;;;;5032648;28;20407;-70
2021/03/21 10:32:35;;;;;;;2.35;1.50;;;;;;;;;;5018844;28;20939;-69
2021/03/21 10:35:04;;;;;;;2.20;1.67;;;;;;;;;;5014526;28;20713;-70
2021/03/21 10:37:42;;;;;;;1.30;1.20;;;;;;;;;;5015681;28;20416;-70
2021/03/21 10:40:24;;;;;;;1.35;1.25;;;;;;;;;;4998947;28;20805;-70
2021/03/21 10:42:50;;;;;;;2.40;1.90;;;;;;;;;;5022699;28;20742;-70
2021/03/21 10:45:18;;;;;;;2.50;1.77;;;;;;;;;;5014380;28;20892;-70
2021/03/21 10:47:45;;;;;;;1.70;1.40;;;;;;;;;;5013675;28;20392;-70
2021/03/21 10:50:31;;;;;;;1.52;1.40;;;;;;;;;;5009170;28;20405;-70
2021/03/21 10:53:06;;;;;;;2.95;1.73;;;;;;;;;;5002351;28;20428;-70
2021/03/21 10:55:34;;;;;;;2.00;1.80;;;;;;;;;;5011869;28;20384;-69
2021/03/21 10:58:21;;;;;;;2.67;1.65;;;;;;;;;;5004303;28;20472;-70
2021/03/21 11:01:07;;;;;;;1.65;1.55;;;;;;;;;;4999636;28;20386;-70
2021/03/21 11:03:33;;;;;;;2.92;2.60;;;;;;;;;;5004667;28;20460;-70
2021/03/21 11:06:00;;;;;;;3.47;2.47;;;;;;;;;;5005434;28;20371;-70
2021/03/21 11:08:27;;;;;;;3.00;2.70;;;;;;;;;;5003159;28;20539;-70
2021/03/21 11:10:54;;;;;;;4.70;3.10;;;;;;;;;;4992650;28;20395;-70
2021/03/21 11:13:34;;;;;;;5.65;2.95;;;;;;;;;;4991455;28;20378;-70
2021/03/21 11:16:10;;;;;;;3.70;3.13;;;;;;;;;;4991777;28;20398;-69
2021/03/21 11:18:37;;;;;;;2.90;2.60;;;;;;;;;;4992086;28;20874;-70
2021/03/21 11:21:03;;;;;;;5.18;2.90;;;;;;;;;;4992299;28;20465;-70
2021/03/21 11:23:29;;;;;;;7.75;2.75;;;;;;;;;;4991268;28;21080;-70
2021/03/21 11:25:55;;;;;;;3.30;3.00;;;;;;;;;;4991918;28;20886;-69
2021/03/21 11:28:27;;;;;;;2.90;2.55;;;;;;;;;;4991607;28;20382;-69
2021/03/21 11:31:00;;;;;;;2.95;2.40;;;;;;;;;;4992216;28;20395;-69
2021/03/21 11:33:30;;;;;;;4.25;2.20;;;;;;;;;;4990966;28;20382;-70
2021/03/21 11:36:11;;;;;;;3.58;2.65;;;;;;;;;;4992109;28;20374;-70
2021/03/21 11:38:40;;;;;;;3.35;2.30;;;;;;;;;;4988069;28;20415;-71
2021/03/21 11:41:18;;;;;;;2.40;2.20;;;;;;;;;;5003810;28;20404;-70
2021/03/21 11:43:44;;;;;;;2.80;2.17;;;;;;;;;;5007531;28;20842;-70
2021/03/21 11:46:12;;;;;;;3.42;2.70;;;;;;;;;;5006675;28;21225;-72
2021/03/21 11:48:39;;;;;;;3.87;2.70;;;;;;;;;;5007613;28;20836;-70
2021/03/21 11:51:05;;;;;;;3.60;2.58;;;;;;;;;;5003511;28;20816;-69
2021/03/21 11:53:35;;;;;;;3.83;2.43;;;;;;;;;;5006812;28;20385;-69
2021/03/21 11:56:14;;;;;;;2.90;2.60;;;;;;;;;;5006888;28;20393;-69
2021/03/21 11:58:46;;;;;;;2.88;2.58;;;;;;;;;;5001106;28;20423;-69
2021/03/21 12:01:25;;;;;;;2.85;2.55;;;;;;;;;;5003596;28;20439;-73
2021/03/21 12:03:54;;;;;;;3.63;2.42;;;;;;;;;;5003645;28;20388;-70
2021/03/21 12:06:44;;;;;;;5.33;2.93;;;6.70;99.90;;;;;;5004273;28;20962;-69
2021/03/21 12:09:19;;;;;;;4.70;2.80;;;;;;;;;;5006136;28;20431;-73
2021/03/21 12:11:47;;;;;;;3.95;3.25;;;;;;;;;;5006051;28;20417;-70
2021/03/21 12:14:36;;;;;;;4.00;2.78;;;;;;;;;;5004666;28;20392;-71
2021/03/21 12:17:20;;;;;;;4.20;2.70;;;;;;;;;;4992023;28;20402;-70
2021/03/21 12:19:46;;;;;;;4.32;2.90;;;;;;;;;;4998857;28;20408;-70
2021/03/21 12:22:30;;;;;;;3.95;2.97;;;;;;;;;;4989713;28;20378;-73
2021/03/21 12:24:58;;;;;;;3.92;2.83;;;;;;;;;;4993707;28;20478;-69
2021/03/21 12:27:36;;;;;;;3.78;2.90;;;;;;;;;;5006298;28;20866;-70
2021/03/21 12:30:05;;;;;;;4.53;3.20;;;;;;;;;;5010693;28;20487;-69
2021/03/21 12:32:36;;;;;;;3.30;3.00;;;;;;;;;;5025337;28;20431;-69
2021/03/21 12:35:04;;;;;;;4.40;2.80;;;;;;;;;;5010955;28;20376;-69
2021/03/21 12:37:44;;;;;;;4.38;2.92;;;;;;;;;;5009761;28;20389;-69
2021/03/21 12:40:14;;;;;;;4.15;2.72;;;;;;;;;;5010568;28;20389;-72
2021/03/21 12:42:44;;;;;;;2.90;2.47;;;;;;;;;;5011087;28;20904;-69
2021/03/21 12:45:23;;;;;;;2.88;2.45;;;;;;;;;;5010803;28;21144;-73
2021/03/21 12:47:55;;;;;;;4.50;2.63;;;;;;;;;;5003017;28;20397;-71
2021/03/21 12:50:36;;;;;;;3.70;2.80;;;;;;;;;;5013131;28;20500;-68
2021/03/21 12:53:04;;;;;;;4.93;3.03;;;;;;;;;;5020562;28;20870;-70
2021/03/21 12:55:30;;;;;;;3.20;2.80;;;;;;;;;;5006121;28;20711;-70
2021/03/21 12:57:56;;;;;;;4.97;3.40;;;;;;;;;;5024732;28;20381;-69
2021/03/21 13:00:27;;;;;;;3.50;2.40;;;;;;;;;;5022592;28;20391;-70
2021/03/21 13:02:54;;;;;;;3.65;2.70;;;;;;;;;;5040567;28;20906;-70
2021/03/21 13:05:22;;;;;;;2.60;2.40;;;;;;;;;;4999236;28;20490;-70
2021/03/21 13:07:49;;;;;;;3.95;2.90;;;;;;;;;;5002202;28;20965;-70
2021/03/21 13:10:16;;;;;;;4.45;3.33;;;;;;;;;;5011773;28;20462;-70
2021/03/21 13:12:42;;;;;;;3.95;3.28;;;;;;;;;;5006590;28;20893;-70
2021/03/21 13:15:08;;;;;;;4.63;2.85;;;;;;;;;;5015207;28;20943;-70
2021/03/21 13:17:34;;;;;;;3.83;3.20;;;;;;;;;;5012728;28;20973;-70
2021/03/21 13:20:00;;;;;;;3.90;3.47;;;;;;;;;;5021189;28;20367;-70
2021/03/21 13:22:26;;;;;;;3.13;2.83;;;;;;;;;;5028578;28;20403;-69
2021/03/21 13:24:53;;;;;;;4.35;3.28;;;;;;;;;;5014205;28;20380;-69
2021/03/21 13:27:19;;;;;;;5.80;3.28;;;;;;;;;;5012807;28;20388;-73
2021/03/21 13:29:46;;;;;;;4.50;3.03;;;;;;;;;;5013677;28;20924;-69
2021/03/21 13:32:12;;;;;;;5.80;2.90;;;;;;;;;;5006791;28;20425;-71
2021/03/21 13:34:38;;;;;;;3.90;3.20;;;;;;;;;;5017907;28;20784;-70
2021/03/21 13:37:04;;;;;;;3.83;2.72;;;;;;;;;;5023490;28;20393;-70
2021/03/21 13:39:30;;;;;;;3.50;3.20;;;;;;;;;;5003497;28;20445;-70
2021/03/21 13:41:58;;;;;;;3.65;2.90;;;;;;;;;;4994494;28;20942;-70
2021/03/21 13:44:26;;;;;;;5.05;3.30;;;;;;;;;;4996019;28;20381;-71
2021/03/21 13:46:52;;;;;;;3.80;2.80;;;;;;;;;;5009534;28;20377;-69
2021/03/21 13:49:19;;;;;;;5.60;3.40;;;;;;;;;;5012949;28;20440;-68
2021/03/21 13:51:46;;;;;;;4.70;3.22;;;;;;;;;;5013377;28;20381;-68
2021/03/21 13:54:12;;;;;;;4.50;3.20;;;;;;;;;;5013569;28;20369;-68
2021/03/21 13:56:38;;;;;;;3.83;3.45;;;;;;;;;;5012564;28;20384;-69
2021/03/21 13:59:04;;;;;;;3.50;3.10;;;;;;;;;;5028415;28;20393;-68
2021/03/21 14:01:30;;;;;;;6.07;3.47;;;;;;;;;;5012504;28;20515;-68
2021/03/21 14:03:57;;;;;;;3.75;3.10;;;;;;;;;;5013137;28;20602;-69
2021/03/21 14:06:23;;;;;;;4.32;3.20;;;;;;;;;;5012510;28;20377;-70
2021/03/21 14:08:49;;;;;;;4.40;3.22;;;;;;;;;;5013497;28;20415;-69
2021/03/21 14:11:15;;;;;;;5.80;3.45;;;;;;;;;;5013111;28;20388;-71
2021/03/21 14:13:42;;;;;;;3.45;3.15;;;;;;;;;;5013134;28;20400;-69
2021/03/21 14:16:08;;;;;;;4.30;3.30;;;;;;;;;;5013477;28;20369;-69
2021/03/21 14:18:34;;;;;;;3.65;2.50;;;;;;;;;;5012477;28;20378;-69
2021/03/21 14:21:00;;;;;;;3.70;2.80;;;;;;;;;;5013568;28;20671;-69
2021/03/21 14:23:30;;;;;;;4.97;3.50;;;;;;;;;;5012083;28;20897;-69
2021/03/21 14:25:59;;;;;;;4.50;3.00;;;;;;;;;;5013428;28;20388;-69
2021/03/21 14:28:34;;;;;;;3.35;3.00;;;;;;;;;;5012228;28;20400;-69
2021/03/21 14:31:01;;;;;;;3.63;3.17;;;;;;;;;;5013387;28;20480;-68
2021/03/21 14:33:27;;;;;;;3.92;3.08;;;;;;;;;;5012195;28;20381;-68
2021/03/21 14:35:53;;;;;;;3.92;3.13;;;;;;;;;;5002461;28;20377;-69
2021/03/21 14:38:21;;;;;;;3.65;3.00;;;;;;;;;;5002972;28;20420;-71
2021/03/21 14:40:50;;;;;;;3.53;3.00;;;;;;;;;;5002601;28;20449;-70
2021/03/21 14:43:17;;;;;;;4.70;3.15;;;;;;;;;;5002940;28;20396;-69
2021/03/21 14:45:44;;;;;;;4.10;3.40;;;;;;;;;;5001730;28;20424;-70
2021/03/21 14:48:11;;;;;;;4.35;3.20;;;;;;;;;;5001778;28;20411;-70
2021/03/21 14:50:37;;;;;;;4.55;3.40;;;;;;;;;;5003181;28;20768;-69
2021/03/21 14:53:03;;;;;;;4.90;3.70;;;;;;;;;;5002342;28;20380;-71
2021/03/21 14:55:31;;;;;;;4.60;3.35;;;;;;;;;;5002160;28;20381;-69
2021/03/21 14:57:57;;;;;;;4.28;3.25;;;;;;;;;;5004525;28;20419;-69
2021/03/21 15:00:34;;;;;;;3.67;3.00;;;;;;;;;;5002749;28;20384;-69
2021/03/21 15:03:03;;;;;;;5.30;3.90;;;;;;;;;;5000870;28;20840;-70
2021/03/21 15:05:29;;;;;;;6.07;3.60;;;;;;;;;;5001370;28;20789;-73
2021/03/21 15:07:55;;;;;;;3.65;3.33;;;;;;;;;;5003389;28;20468;-69
2021/03/21 15:10:22;;;;;;;3.72;3.13;;;;;;;;;;4999686;28;20870;-69